sensor_id;sensor_type;location;lat;lon;timestamp;P1;durP1;ratioP1;P2;durP2;ratioP2
81170;SDS011;70644;44.818;20.478;2023-12-20T00:01:37;28.35;;;25.35;;
81170;SDS011;70644;44.818;20.478;2023-12-20T00:04:06;27.38;;;24.42;;
81170;SDS011;70644;44.818;20.478;2023-12-20T00:06:32;28.15;;;25.20;;
81170;SDS011;70644;44.818;20.478;2023-12-20T00:08:58;27.80;;;24.80;;
81170;SDS011;70644;44.818;20.478;2023-12-20T00:11:25;28.55;;;25.65;;
81170;SDS011;70644;44.818;20.478;2023-12-20T00:13:51;27.67;;;24.77;;
81170;SDS011;70644;44.818;20.478;2023-12-20T00:16:18;28.17;;;25.17;;
81170;SDS011;70644;44.818;20.478;2023-12-20T00:18:44;26.38;;;23.58;;
81170;SDS011;70644;44.818;20.478;2023-12-20T00:21:10;26.95;;;24.15;;
81170;SDS011;70644;44.818;20.478;2023-12-20T00:23:36;27.75;;;24.85;;
81170;SDS011;70644;44.818;20.478;2023-12-20T00:26:02;27.05;;;24.15;;
81170;SDS011;70644;44.818;20.478;2023-12-20T00:28:29;26.33;;;23.60;;
81170;SDS011;70644;44.818;20.478;2023-12-20T00:30:55;26.65;;;23.85;;
81170;SDS011;70644;44.818;20.478;2023-12-20T00:33:21;27.33;;;24.63;;
81170;SDS011;70644;44.818;20.478;2023-12-20T00:35:47;26.95;;;24.05;;
81170;SDS011;70644;44.818;20.478;2023-12-20T00:38:13;26.35;;;23.65;;
81170;SDS011;70644;44.818;20.478;2023-12-20T00:40:39;27.20;;;24.33;;
81170;SDS011;70644;44.818;20.478;2023-12-20T00:43:06;26.15;;;23.35;;
81170;SDS011;70644;44.818;20.478;2023-12-20T00:45:32;24.85;;;22.35;;
81170;SDS011;70644;44.818;20.478;2023-12-20T00:47:58;27.27;;;24.48;;
81170;SDS011;70644;44.818;20.478;2023-12-20T00:50:24;26.50;;;23.70;;
81170;SDS011;70644;44.818;20.478;2023-12-20T00:52:50;25.60;;;22.48;;
81170;SDS011;70644;44.818;20.478;2023-12-20T00:55:16;25.65;;;22.95;;
81170;SDS011;70644;44.818;20.478;2023-12-20T00:57:42;26.92;;;24.13;;
81170;SDS011;70644;44.818;20.478;2023-12-20T01:00:08;24.67;;;22.08;;
81170;SDS011;70644;44.818;20.478;2023-12-20T01:02:35;25.10;;;22.40;;
81170;SDS011;70644;44.818;20.478;2023-12-20T01:05:01;25.15;;;22.58;;
81170;SDS011;70644;44.818;20.478;2023-12-20T01:07:27;25.50;;;22.90;;
81170;SDS011;70644;44.818;20.478;2023-12-20T01:09:53;24.75;;;22.13;;
81170;SDS011;70644;44.818;20.478;2023-12-20T01:12:19;24.52;;;22.00;;
81170;SDS011;70644;44.818;20.478;2023-12-20T01:14:46;24.70;;;22.20;;
81170;SDS011;70644;44.818;20.478;2023-12-20T01:17:12;25.42;;;22.67;;
81170;SDS011;70644;44.818;20.478;2023-12-20T01:19:38;26.17;;;23.48;;
81170;SDS011;70644;44.818;20.478;2023-12-20T01:22:04;25.52;;;22.90;;
81170;SDS011;70644;44.818;20.478;2023-12-20T01:24:30;24.70;;;22.17;;
81170;SDS011;70644;44.818;20.478;2023-12-20T01:26:56;24.08;;;21.58;;
81170;SDS011;70644;44.818;20.478;2023-12-20T01:29:22;24.48;;;21.80;;
81170;SDS011;70644;44.818;20.478;2023-12-20T01:31:48;24.27;;;21.77;;
81170;SDS011;70644;44.818;20.478;2023-12-20T01:34:15;23.58;;;21.17;;
81170;SDS011;70644;44.818;20.478;2023-12-20T01:36:42;25.30;;;22.63;;
81170;SDS011;70644;44.818;20.478;2023-12-20T01:39:09;24.17;;;21.60;;
81170;SDS011;70644;44.818;20.478;2023-12-20T01:41:35;24.55;;;22.05;;
81170;SDS011;70644;44.818;20.478;2023-12-20T01:44:01;23.15;;;20.52;;
81170;SDS011;70644;44.818;20.478;2023-12-20T01:46:27;23.63;;;21.15;;
81170;SDS011;70644;44.818;20.478;2023-12-20T01:48:53;24.13;;;21.70;;
81170;SDS011;70644;44.818;20.478;2023-12-20T01:51:20;24.20;;;21.63;;
81170;SDS011;70644;44.818;20.478;2023-12-20T01:53:46;22.55;;;20.25;;
81170;SDS011;70644;44.818;20.478;2023-12-20T01:56:12;22.98;;;20.58;;
81170;SDS011;70644;44.818;20.478;2023-12-20T01:58:44;23.05;;;20.55;;
81170;SDS011;70644;44.818;20.478;2023-12-20T02:01:11;21.92;;;19.60;;
81170;SDS011;70644;44.818;20.478;2023-12-20T02:03:38;22.15;;;19.85;;
81170;SDS011;70644;44.818;20.478;2023-12-20T02:06:04;22.48;;;20.20;;
81170;SDS011;70644;44.818;20.478;2023-12-20T02:08:31;22.85;;;20.45;;
81170;SDS011;70644;44.818;20.478;2023-12-20T02:10:57;22.02;;;19.73;;
81170;SDS011;70644;44.818;20.478;2023-12-20T02:13:23;21.63;;;19.35;;
81170;SDS011;70644;44.818;20.478;2023-12-20T02:15:50;22.45;;;20.17;;
81170;SDS011;70644;44.818;20.478;2023-12-20T02:18:16;20.85;;;18.73;;
81170;SDS011;70644;44.818;20.478;2023-12-20T02:20:42;21.30;;;19.10;;
81170;SDS011;70644;44.818;20.478;2023-12-20T02:23:08;22.42;;;20.17;;
81170;SDS011;70644;44.818;20.478;2023-12-20T02:25:34;21.67;;;19.50;;
81170;SDS011;70644;44.818;20.478;2023-12-20T02:28:01;22.17;;;19.30;;
81170;SDS011;70644;44.818;20.478;2023-12-20T02:30:28;22.02;;;19.73;;
81170;SDS011;70644;44.818;20.478;2023-12-20T02:32:54;21.98;;;19.67;;
81170;SDS011;70644;44.818;20.478;2023-12-20T02:35:20;21.60;;;19.40;;
81170;SDS011;70644;44.818;20.478;2023-12-20T02:37:46;21.02;;;18.83;;
81170;SDS011;70644;44.818;20.478;2023-12-20T02:40:12;20.85;;;18.80;;
81170;SDS011;70644;44.818;20.478;2023-12-20T02:42:38;20.02;;;17.92;;
81170;SDS011;70644;44.818;20.478;2023-12-20T02:45:04;21.60;;;19.40;;
81170;SDS011;70644;44.818;20.478;2023-12-20T02:47:30;20.75;;;18.65;;
81170;SDS011;70644;44.818;20.478;2023-12-20T02:49:57;20.40;;;18.30;;
81170;SDS011;70644;44.818;20.478;2023-12-20T02:52:23;22.05;;;19.75;;
81170;SDS011;70644;44.818;20.478;2023-12-20T02:54:49;21.05;;;18.65;;
81170;SDS011;70644;44.818;20.478;2023-12-20T02:57:16;20.58;;;18.55;;
81170;SDS011;70644;44.818;20.478;2023-12-20T02:59:42;21.92;;;19.70;;
81170;SDS011;70644;44.818;20.478;2023-12-20T03:02:08;20.20;;;18.25;;
81170;SDS011;70644;44.818;20.478;2023-12-20T03:04:34;19.83;;;17.73;;
81170;SDS011;70644;44.818;20.478;2023-12-20T03:07:00;20.63;;;18.42;;
81170;SDS011;70644;44.818;20.478;2023-12-20T03:09:26;20.90;;;18.70;;
81170;SDS011;70644;44.818;20.478;2023-12-20T03:11:52;20.65;;;18.52;;
81170;SDS011;70644;44.818;20.478;2023-12-20T03:14:18;20.38;;;18.25;;
81170;SDS011;70644;44.818;20.478;2023-12-20T03:16:51;19.60;;;17.50;;
81170;SDS011;70644;44.818;20.478;2023-12-20T03:19:17;20.15;;;18.00;;
81170;SDS011;70644;44.818;20.478;2023-12-20T03:21:46;20.65;;;18.45;;
81170;SDS011;70644;44.818;20.478;2023-12-20T03:24:13;19.30;;;17.35;;
81170;SDS011;70644;44.818;20.478;2023-12-20T03:26:39;19.80;;;17.73;;
81170;SDS011;70644;44.818;20.478;2023-12-20T03:29:05;19.50;;;17.50;;
81170;SDS011;70644;44.818;20.478;2023-12-20T03:31:31;19.98;;;17.98;;
81170;SDS011;70644;44.818;20.478;2023-12-20T03:33:57;20.25;;;18.25;;
81170;SDS011;70644;44.818;20.478;2023-12-20T03:36:24;19.73;;;17.67;;
81170;SDS011;70644;44.818;20.478;2023-12-20T03:38:50;19.63;;;17.65;;
81170;SDS011;70644;44.818;20.478;2023-12-20T03:41:16;19.58;;;17.65;;
81170;SDS011;70644;44.818;20.478;2023-12-20T03:43:42;19.85;;;17.95;;
81170;SDS011;70644;44.818;20.478;2023-12-20T03:46:08;19.50;;;17.50;;
81170;SDS011;70644;44.818;20.478;2023-12-20T03:48:34;19.70;;;17.63;;
81170;SDS011;70644;44.818;20.478;2023-12-20T03:51:00;18.98;;;17.08;;
81170;SDS011;70644;44.818;20.478;2023-12-20T03:53:27;19.13;;;17.23;;
81170;SDS011;70644;44.818;20.478;2023-12-20T03:55:53;19.90;;;17.80;;
81170;SDS011;70644;44.818;20.478;2023-12-20T03:58:20;19.58;;;17.48;;
81170;SDS011;70644;44.818;20.478;2023-12-20T04:00:46;19.42;;;17.42;;
81170;SDS011;70644;44.818;20.478;2023-12-20T04:03:12;19.42;;;17.50;;
81170;SDS011;70644;44.818;20.478;2023-12-20T04:05:42;18.88;;;17.00;;
81170;SDS011;70644;44.818;20.478;2023-12-20T04:08:08;18.77;;;16.77;;
81170;SDS011;70644;44.818;20.478;2023-12-20T04:10:35;19.40;;;17.40;;
81170;SDS011;70644;44.818;20.478;2023-12-20T04:13:02;20.10;;;18.17;;
81170;SDS011;70644;44.818;20.478;2023-12-20T04:15:28;18.58;;;16.63;;
81170;SDS011;70644;44.818;20.478;2023-12-20T04:17:54;18.42;;;16.60;;
81170;SDS011;70644;44.818;20.478;2023-12-20T04:20:20;18.80;;;16.88;;
81170;SDS011;70644;44.818;20.478;2023-12-20T04:22:46;18.98;;;17.17;;
81170;SDS011;70644;44.818;20.478;2023-12-20T04:25:12;19.05;;;17.10;;
81170;SDS011;70644;44.818;20.478;2023-12-20T04:27:38;19.38;;;17.40;;
81170;SDS011;70644;44.818;20.478;2023-12-20T04:30:04;18.05;;;16.25;;
81170;SDS011;70644;44.818;20.478;2023-12-20T04:32:31;19.60;;;17.70;;
81170;SDS011;70644;44.818;20.478;2023-12-20T04:34:57;19.27;;;17.38;;
81170;SDS011;70644;44.818;20.478;2023-12-20T04:37:23;18.75;;;16.85;;
81170;SDS011;70644;44.818;20.478;2023-12-20T04:39:50;18.80;;;17.00;;
81170;SDS011;70644;44.818;20.478;2023-12-20T04:42:16;17.95;;;16.15;;
81170;SDS011;70644;44.818;20.478;2023-12-20T04:44:42;19.35;;;17.45;;
81170;SDS011;70644;44.818;20.478;2023-12-20T04:47:08;17.73;;;16.02;;
81170;SDS011;70644;44.818;20.478;2023-12-20T04:49:35;19.98;;;17.98;;
81170;SDS011;70644;44.818;20.478;2023-12-20T04:52:01;18.48;;;16.67;;
81170;SDS011;70644;44.818;20.478;2023-12-20T04:54:28;18.33;;;16.52;;
81170;SDS011;70644;44.818;20.478;2023-12-20T04:56:54;18.27;;;16.38;;
81170;SDS011;70644;44.818;20.478;2023-12-20T04:59:20;19.05;;;17.15;;
81170;SDS011;70644;44.818;20.478;2023-12-20T05:01:46;19.40;;;17.40;;
81170;SDS011;70644;44.818;20.478;2023-12-20T05:04:13;18.73;;;16.73;;
81170;SDS011;70644;44.818;20.478;2023-12-20T05:06:39;18.20;;;16.48;;
81170;SDS011;70644;44.818;20.478;2023-12-20T05:09:06;18.42;;;16.52;;
81170;SDS011;70644;44.818;20.478;2023-12-20T05:11:32;18.00;;;16.27;;
81170;SDS011;70644;44.818;20.478;2023-12-20T05:13:58;18.52;;;16.63;;
81170;SDS011;70644;44.818;20.478;2023-12-20T05:16:24;18.45;;;16.60;;
81170;SDS011;70644;44.818;20.478;2023-12-20T05:18:50;17.98;;;16.08;;
81170;SDS011;70644;44.818;20.478;2023-12-20T05:21:17;17.88;;;16.08;;
81170;SDS011;70644;44.818;20.478;2023-12-20T05:23:43;17.70;;;15.90;;
81170;SDS011;70644;44.818;20.478;2023-12-20T05:26:09;17.92;;;16.02;;
81170;SDS011;70644;44.818;20.478;2023-12-20T05:28:35;17.80;;;15.98;;
81170;SDS011;70644;44.818;20.478;2023-12-20T05:31:01;16.73;;;15.02;;
81170;SDS011;70644;44.818;20.478;2023-12-20T05:33:28;18.08;;;16.27;;
81170;SDS011;70644;44.818;20.478;2023-12-20T05:35:54;18.55;;;16.75;;
81170;SDS011;70644;44.818;20.478;2023-12-20T05:38:20;18.15;;;16.35;;
81170;SDS011;70644;44.818;20.478;2023-12-20T05:40:46;18.55;;;16.75;;
81170;SDS011;70644;44.818;20.478;2023-12-20T05:43:12;17.85;;;16.13;;
81170;SDS011;70644;44.818;20.478;2023-12-20T05:45:38;18.45;;;16.65;;
81170;SDS011;70644;44.818;20.478;2023-12-20T05:48:04;18.88;;;16.98;;
81170;SDS011;70644;44.818;20.478;2023-12-20T05:50:30;18.65;;;16.75;;
81170;SDS011;70644;44.818;20.478;2023-12-20T05:52:56;16.88;;;15.18;;
81170;SDS011;70644;44.818;20.478;2023-12-20T05:55:22;17.65;;;15.93;;
81170;SDS011;70644;44.818;20.478;2023-12-20T05:57:48;19.05;;;17.15;;
81170;SDS011;70644;44.818;20.478;2023-12-20T06:00:14;18.02;;;16.23;;
81170;SDS011;70644;44.818;20.478;2023-12-20T06:02:40;17.67;;;15.88;;
81170;SDS011;70644;44.818;20.478;2023-12-20T06:05:07;17.23;;;15.52;;
81170;SDS011;70644;44.818;20.478;2023-12-20T06:07:33;18.10;;;16.20;;
81170;SDS011;70644;44.818;20.478;2023-12-20T06:09:59;17.67;;;15.77;;
81170;SDS011;70644;44.818;20.478;2023-12-20T06:12:25;18.35;;;16.50;;
81170;SDS011;70644;44.818;20.478;2023-12-20T06:14:57;18.80;;;16.90;;
81170;SDS011;70644;44.818;20.478;2023-12-20T06:17:23;18.20;;;16.50;;
81170;SDS011;70644;44.818;20.478;2023-12-20T06:19:49;17.30;;;15.65;;
81170;SDS011;70644;44.818;20.478;2023-12-20T06:22:15;18.35;;;16.55;;
81170;SDS011;70644;44.818;20.478;2023-12-20T06:24:41;18.17;;;16.38;;
81170;SDS011;70644;44.818;20.478;2023-12-20T06:27:07;17.60;;;15.90;;
81170;SDS011;70644;44.818;20.478;2023-12-20T06:29:39;17.60;;;15.90;;
81170;SDS011;70644;44.818;20.478;2023-12-20T06:32:06;18.75;;;16.90;;
81170;SDS011;70644;44.818;20.478;2023-12-20T06:34:32;17.80;;;16.08;;
81170;SDS011;70644;44.818;20.478;2023-12-20T06:36:58;17.83;;;16.13;;
81170;SDS011;70644;44.818;20.478;2023-12-20T06:39:24;17.42;;;15.70;;
81170;SDS011;70644;44.818;20.478;2023-12-20T06:41:50;18.88;;;17.02;;
81170;SDS011;70644;44.818;20.478;2023-12-20T06:44:16;17.83;;;16.10;;
81170;SDS011;70644;44.818;20.478;2023-12-20T06:46:42;18.13;;;16.33;;
81170;SDS011;70644;44.818;20.478;2023-12-20T06:49:08;18.75;;;16.95;;
81170;SDS011;70644;44.818;20.478;2023-12-20T06:51:35;18.27;;;16.38;;
81170;SDS011;70644;44.818;20.478;2023-12-20T06:54:01;18.20;;;16.23;;
81170;SDS011;70644;44.818;20.478;2023-12-20T06:56:27;18.85;;;17.02;;
81170;SDS011;70644;44.818;20.478;2023-12-20T06:58:53;17.90;;;16.10;;
81170;SDS011;70644;44.818;20.478;2023-12-20T07:01:19;18.85;;;16.95;;
81170;SDS011;70644;44.818;20.478;2023-12-20T07:03:45;41.05;;;36.65;;
81170;SDS011;70644;44.818;20.478;2023-12-20T07:06:12;43.42;;;38.70;;
81170;SDS011;70644;44.818;20.478;2023-12-20T07:08:39;45.35;;;40.45;;
81170;SDS011;70644;44.818;20.478;2023-12-20T07:11:06;51.83;;;41.67;;
81170;SDS011;70644;44.818;20.478;2023-12-20T07:13:32;48.25;;;42.92;;
81170;SDS011;70644;44.818;20.478;2023-12-20T07:15:58;46.83;;;41.83;;
81170;SDS011;70644;44.818;20.478;2023-12-20T07:18:24;45.55;;;40.65;;
81170;SDS011;70644;44.818;20.478;2023-12-20T07:20:50;45.13;;;40.55;;
81170;SDS011;70644;44.818;20.478;2023-12-20T07:23:16;45.03;;;40.25;;
81170;SDS011;70644;44.818;20.478;2023-12-20T07:25:42;45.35;;;39.92;;
81170;SDS011;70644;44.818;20.478;2023-12-20T07:28:08;44.53;;;39.83;;
81170;SDS011;70644;44.818;20.478;2023-12-20T07:30:34;45.22;;;40.40;;
81170;SDS011;70644;44.818;20.478;2023-12-20T07:33:00;43.30;;;38.92;;
81170;SDS011;70644;44.818;20.478;2023-12-20T07:35:27;43.25;;;38.72;;
81170;SDS011;70644;44.818;20.478;2023-12-20T07:37:53;43.83;;;39.08;;
81170;SDS011;70644;44.818;20.478;2023-12-20T07:40:19;42.50;;;38.10;;
81170;SDS011;70644;44.818;20.478;2023-12-20T07:42:45;43.60;;;38.97;;
81170;SDS011;70644;44.818;20.478;2023-12-20T07:45:11;42.97;;;38.28;;
81170;SDS011;70644;44.818;20.478;2023-12-20T07:47:38;43.88;;;39.55;;
81170;SDS011;70644;44.818;20.478;2023-12-20T07:50:05;42.67;;;38.30;;
81170;SDS011;70644;44.818;20.478;2023-12-20T07:52:33;43.22;;;38.72;;
81170;SDS011;70644;44.818;20.478;2023-12-20T07:54:59;41.05;;;36.83;;
81170;SDS011;70644;44.818;20.478;2023-12-20T07:57:28;44.60;;;39.83;;
81170;SDS011;70644;44.818;20.478;2023-12-20T07:59:55;42.78;;;38.17;;
81170;SDS011;70644;44.818;20.478;2023-12-20T08:02:21;41.55;;;37.38;;
81170;SDS011;70644;44.818;20.478;2023-12-20T08:04:47;43.03;;;38.50;;
81170;SDS011;70644;44.818;20.478;2023-12-20T08:07:13;42.03;;;37.55;;
81170;SDS011;70644;44.818;20.478;2023-12-20T08:09:39;42.08;;;37.85;;
81170;SDS011;70644;44.818;20.478;2023-12-20T08:12:05;41.60;;;37.10;;
81170;SDS011;70644;44.818;20.478;2023-12-20T08:14:32;41.20;;;36.83;;
81170;SDS011;70644;44.818;20.478;2023-12-20T08:16:58;42.97;;;38.28;;
81170;SDS011;70644;44.818;20.478;2023-12-20T08:19:24;39.40;;;35.53;;
81170;SDS011;70644;44.818;20.478;2023-12-20T08:21:50;41.58;;;37.25;;
81170;SDS011;70644;44.818;20.478;2023-12-20T08:24:16;41.13;;;36.90;;
81170;SDS011;70644;44.818;20.478;2023-12-20T08:26:42;41.38;;;36.85;;
81170;SDS011;70644;44.818;20.478;2023-12-20T08:29:08;43.83;;;39.22;;
81170;SDS011;70644;44.818;20.478;2023-12-20T08:31:34;41.88;;;37.60;;
81170;SDS011;70644;44.818;20.478;2023-12-20T08:34:00;56.40;;;50.72;;
81170;SDS011;70644;44.818;20.478;2023-12-20T08:36:26;64.10;;;58.05;;
81170;SDS011;70644;44.818;20.478;2023-12-20T08:38:52;60.33;;;54.03;;
81170;SDS011;70644;44.818;20.478;2023-12-20T08:41:20;56.53;;;50.88;;
81170;SDS011;70644;44.818;20.478;2023-12-20T08:43:46;55.20;;;49.55;;
81170;SDS011;70644;44.818;20.478;2023-12-20T08:46:13;55.10;;;49.65;;
81170;SDS011;70644;44.818;20.478;2023-12-20T08:48:39;55.63;;;50.38;;
81170;SDS011;70644;44.818;20.478;2023-12-20T08:51:05;51.20;;;46.08;;
81170;SDS011;70644;44.818;20.478;2023-12-20T08:53:33;53.55;;;48.35;;
81170;SDS011;70644;44.818;20.478;2023-12-20T08:55:59;51.85;;;46.67;;
81170;SDS011;70644;44.818;20.478;2023-12-20T08:58:29;49.72;;;44.92;;
81170;SDS011;70644;44.818;20.478;2023-12-20T09:00:55;51.92;;;46.83;;
81170;SDS011;70644;44.818;20.478;2023-12-20T09:03:21;51.25;;;46.05;;
81170;SDS011;70644;44.818;20.478;2023-12-20T09:05:47;51.47;;;46.45;;
81170;SDS011;70644;44.818;20.478;2023-12-20T09:08:13;48.53;;;43.60;;
81170;SDS011;70644;44.818;20.478;2023-12-20T09:10:39;48.85;;;44.08;;
81170;SDS011;70644;44.818;20.478;2023-12-20T09:13:05;49.75;;;44.85;;
81170;SDS011;70644;44.818;20.478;2023-12-20T09:15:31;49.90;;;44.95;;
81170;SDS011;70644;44.818;20.478;2023-12-20T09:17:59;48.60;;;43.67;;
81170;SDS011;70644;44.818;20.478;2023-12-20T09:20:25;52.03;;;45.00;;
81170;SDS011;70644;44.818;20.478;2023-12-20T09:22:52;50.22;;;44.85;;
81170;SDS011;70644;44.818;20.478;2023-12-20T09:25:18;47.38;;;42.47;;
81170;SDS011;70644;44.818;20.478;2023-12-20T09:27:44;50.92;;;42.95;;
81170;SDS011;70644;44.818;20.478;2023-12-20T09:30:10;48.97;;;41.97;;
81170;SDS011;70644;44.818;20.478;2023-12-20T09:32:36;45.83;;;40.85;;
81170;SDS011;70644;44.818;20.478;2023-12-20T09:35:03;47.58;;;42.47;;
81170;SDS011;70644;44.818;20.478;2023-12-20T09:37:31;44.47;;;39.85;;
81170;SDS011;70644;44.818;20.478;2023-12-20T09:39:57;45.05;;;40.30;;
81170;SDS011;70644;44.818;20.478;2023-12-20T09:42:37;44.67;;;39.53;;
81170;SDS011;70644;44.818;20.478;2023-12-20T09:45:04;43.55;;;38.95;;
81170;SDS011;70644;44.818;20.478;2023-12-20T09:47:32;41.47;;;37.05;;
81170;SDS011;70644;44.818;20.478;2023-12-20T09:49:59;42.05;;;37.58;;
81170;SDS011;70644;44.818;20.478;2023-12-20T09:52:25;41.67;;;37.25;;
81170;SDS011;70644;44.818;20.478;2023-12-20T09:54:52;42.35;;;37.78;;
81170;SDS011;70644;44.818;20.478;2023-12-20T09:59:45;41.60;;;37.10;;
81170;SDS011;70644;44.818;20.478;2023-12-20T10:02:12;41.10;;;36.78;;
81170;SDS011;70644;44.818;20.478;2023-12-20T10:04:46;41.05;;;36.70;;
81170;SDS011;70644;44.818;20.478;2023-12-20T10:07:13;39.45;;;34.42;;
81170;SDS011;70644;44.818;20.478;2023-12-20T10:09:39;39.33;;;35.08;;
81170;SDS011;70644;44.818;20.478;2023-12-20T10:12:05;38.42;;;34.15;;
81170;SDS011;70644;44.818;20.478;2023-12-20T10:14:32;37.35;;;33.28;;
81170;SDS011;70644;44.818;20.478;2023-12-20T10:17:04;38.65;;;34.58;;
81170;SDS011;70644;44.818;20.478;2023-12-20T10:19:32;37.15;;;33.15;;
81170;SDS011;70644;44.818;20.478;2023-12-20T10:22:03;40.30;;;35.88;;
81170;SDS011;70644;44.818;20.478;2023-12-20T10:24:30;36.58;;;32.63;;
81170;SDS011;70644;44.818;20.478;2023-12-20T10:27:03;36.83;;;32.92;;
81170;SDS011;70644;44.818;20.478;2023-12-20T10:29:36;36.72;;;32.92;;
81170;SDS011;70644;44.818;20.478;2023-12-20T10:32:24;35.97;;;32.17;;
81170;SDS011;70644;44.818;20.478;2023-12-20T10:34:51;37.58;;;33.38;;
81170;SDS011;70644;44.818;20.478;2023-12-20T10:37:17;37.15;;;33.20;;
81170;SDS011;70644;44.818;20.478;2023-12-20T10:39:44;37.30;;;33.35;;
81170;SDS011;70644;44.818;20.478;2023-12-20T10:42:13;38.67;;;34.47;;
81170;SDS011;70644;44.818;20.478;2023-12-20T10:44:40;39.88;;;34.10;;
81170;SDS011;70644;44.818;20.478;2023-12-20T10:47:06;39.58;;;34.33;;
81170;SDS011;70644;44.818;20.478;2023-12-20T10:49:33;37.35;;;32.30;;
81170;SDS011;70644;44.818;20.478;2023-12-20T10:52:00;39.15;;;34.95;;
81170;SDS011;70644;44.818;20.478;2023-12-20T10:54:28;37.50;;;33.13;;
81170;SDS011;70644;44.818;20.478;2023-12-20T10:56:54;36.88;;;32.88;;
81170;SDS011;70644;44.818;20.478;2023-12-20T10:59:21;38.65;;;33.03;;
81170;SDS011;70644;44.818;20.478;2023-12-20T11:01:49;37.10;;;32.53;;
81170;SDS011;70644;44.818;20.478;2023-12-20T11:04:17;38.58;;;32.40;;
81170;SDS011;70644;44.818;20.478;2023-12-20T11:09:15;38.35;;;34.05;;
81170;SDS011;70644;44.818;20.478;2023-12-20T11:12:25;35.58;;;31.73;;
81170;SDS011;70644;44.818;20.478;2023-12-20T11:14:34;36.53;;;32.72;;
81170;SDS011;70644;44.818;20.478;2023-12-20T11:17:08;37.22;;;33.22;;
81170;SDS011;70644;44.818;20.478;2023-12-20T11:19:36;38.80;;;34.03;;
81170;SDS011;70644;44.818;20.478;2023-12-20T11:22:03;36.92;;;32.17;;
81170;SDS011;70644;44.818;20.478;2023-12-20T11:24:31;36.75;;;32.95;;
81170;SDS011;70644;44.818;20.478;2023-12-20T11:26:59;37.55;;;33.33;;
81170;SDS011;70644;44.818;20.478;2023-12-20T11:32:02;35.13;;;31.33;;
81170;SDS011;70644;44.818;20.478;2023-12-20T11:34:29;34.40;;;30.75;;
81170;SDS011;70644;44.818;20.478;2023-12-20T11:39:23;37.25;;;31.40;;
81170;SDS011;70644;44.818;20.478;2023-12-20T11:41:51;35.90;;;32.20;;
81170;SDS011;70644;44.818;20.478;2023-12-20T11:44:17;35.58;;;31.23;;
81170;SDS011;70644;44.818;20.478;2023-12-20T11:46:44;36.58;;;32.58;;
81170;SDS011;70644;44.818;20.478;2023-12-20T11:49:10;34.25;;;30.55;;
81170;SDS011;70644;44.818;20.478;2023-12-20T11:51:40;33.35;;;29.80;;
81170;SDS011;70644;44.818;20.478;2023-12-20T11:54:06;34.47;;;30.88;;
81170;SDS011;70644;44.818;20.478;2023-12-20T11:56:34;38.70;;;31.33;;
81170;SDS011;70644;44.818;20.478;2023-12-20T11:59:00;36.22;;;32.17;;
81170;SDS011;70644;44.818;20.478;2023-12-20T12:01:26;35.85;;;30.23;;
81170;SDS011;70644;44.818;20.478;2023-12-20T12:04:02;35.35;;;31.55;;
81170;SDS011;70644;44.818;20.478;2023-12-20T12:06:28;36.25;;;32.25;;
81170;SDS011;70644;44.818;20.478;2023-12-20T12:08:54;33.83;;;29.65;;
81170;SDS011;70644;44.818;20.478;2023-12-20T12:11:21;35.30;;;30.98;;
81170;SDS011;70644;44.818;20.478;2023-12-20T12:13:47;34.92;;;31.23;;
81170;SDS011;70644;44.818;20.478;2023-12-20T12:16:16;34.55;;;30.80;;
81170;SDS011;70644;44.818;20.478;2023-12-20T12:18:43;34.45;;;30.85;;
81170;SDS011;70644;44.818;20.478;2023-12-20T12:21:09;34.92;;;31.30;;
81170;SDS011;70644;44.818;20.478;2023-12-20T12:23:35;34.30;;;30.55;;
81170;SDS011;70644;44.818;20.478;2023-12-20T12:26:03;36.33;;;30.67;;
81170;SDS011;70644;44.818;20.478;2023-12-20T12:28:29;35.63;;;30.83;;
81170;SDS011;70644;44.818;20.478;2023-12-20T12:31:00;37.33;;;33.30;;
81170;SDS011;70644;44.818;20.478;2023-12-20T12:33:26;33.97;;;29.92;;
81170;SDS011;70644;44.818;20.478;2023-12-20T12:35:52;34.50;;;30.80;;
81170;SDS011;70644;44.818;20.478;2023-12-20T12:38:22;35.60;;;31.38;;
81170;SDS011;70644;44.818;20.478;2023-12-20T12:40:48;34.42;;;30.88;;
81170;SDS011;70644;44.818;20.478;2023-12-20T12:43:15;34.20;;;30.50;;
81170;SDS011;70644;44.818;20.478;2023-12-20T12:45:41;33.65;;;30.05;;
81170;SDS011;70644;44.818;20.478;2023-12-20T12:48:07;36.65;;;32.78;;
81170;SDS011;70644;44.818;20.478;2023-12-20T12:50:33;36.10;;;31.35;;
81170;SDS011;70644;44.818;20.478;2023-12-20T12:52:59;34.75;;;31.00;;
81170;SDS011;70644;44.818;20.478;2023-12-20T12:55:25;34.75;;;31.02;;
81170;SDS011;70644;44.818;20.478;2023-12-20T12:57:51;33.00;;;29.08;;
81170;SDS011;70644;44.818;20.478;2023-12-20T13:00:17;35.28;;;31.05;;
81170;SDS011;70644;44.818;20.478;2023-12-20T13:02:44;34.30;;;30.48;;
81170;SDS011;70644;44.818;20.478;2023-12-20T13:05:10;35.72;;;30.80;;
81170;SDS011;70644;44.818;20.478;2023-12-20T13:07:36;34.60;;;30.33;;
81170;SDS011;70644;44.818;20.478;2023-12-20T13:10:04;34.72;;;31.05;;
81170;SDS011;70644;44.818;20.478;2023-12-20T13:12:30;34.13;;;29.58;;
81170;SDS011;70644;44.818;20.478;2023-12-20T13:14:57;35.13;;;31.40;;
81170;SDS011;70644;44.818;20.478;2023-12-20T13:17:23;35.60;;;31.50;;
81170;SDS011;70644;44.818;20.478;2023-12-20T13:19:49;34.78;;;31.02;;
81170;SDS011;70644;44.818;20.478;2023-12-20T13:22:15;36.10;;;31.42;;
81170;SDS011;70644;44.818;20.478;2023-12-20T13:24:41;36.92;;;31.98;;
81170;SDS011;70644;44.818;20.478;2023-12-20T13:27:09;36.28;;;31.55;;
81170;SDS011;70644;44.818;20.478;2023-12-20T13:29:35;36.28;;;32.35;;
81170;SDS011;70644;44.818;20.478;2023-12-20T13:32:02;42.33;;;37.05;;
81170;SDS011;70644;44.818;20.478;2023-12-20T13:34:28;41.97;;;37.53;;
81170;SDS011;70644;44.818;20.478;2023-12-20T13:36:54;43.75;;;39.17;;
81170;SDS011;70644;44.818;20.478;2023-12-20T13:39:21;43.58;;;39.00;;
81170;SDS011;70644;44.818;20.478;2023-12-20T13:41:47;42.67;;;37.97;;
81170;SDS011;70644;44.818;20.478;2023-12-20T13:44:13;42.60;;;37.13;;
81170;SDS011;70644;44.818;20.478;2023-12-20T13:46:40;41.35;;;36.92;;
81170;SDS011;70644;44.818;20.478;2023-12-20T13:49:06;43.30;;;37.83;;
81170;SDS011;70644;44.818;20.478;2023-12-20T13:51:33;40.42;;;36.00;;
81170;SDS011;70644;44.818;20.478;2023-12-20T13:53:59;41.28;;;36.88;;
81170;SDS011;70644;44.818;20.478;2023-12-20T13:56:25;39.22;;;34.80;;
81170;SDS011;70644;44.818;20.478;2023-12-20T13:58:52;40.45;;;36.15;;
81170;SDS011;70644;44.818;20.478;2023-12-20T14:01:18;38.00;;;34.03;;
81170;SDS011;70644;44.818;20.478;2023-12-20T14:03:45;38.30;;;34.22;;
81170;SDS011;70644;44.818;20.478;2023-12-20T14:06:11;39.50;;;35.20;;
81170;SDS011;70644;44.818;20.478;2023-12-20T14:08:38;39.13;;;34.90;;
81170;SDS011;70644;44.818;20.478;2023-12-20T14:11:05;39.60;;;35.38;;
81170;SDS011;70644;44.818;20.478;2023-12-20T14:13:31;39.67;;;35.42;;
81170;SDS011;70644;44.818;20.478;2023-12-20T14:15:57;38.58;;;34.40;;